Time;durP1;ratioP1;P1;durP2;ratioP2;P2;SDS_P1;SDS_P2;PMS_P1;PMS_P2;Temp;Humidity;BMP_temperature;BMP_pressure;BME280_temperature;BME280_humidity;BME280_pressure;Samples;Min_cycle;Max_cycle;Signal;HPM_P1;HPM_P2
2021/03/01 00:01:00;;;;;;;15.33;8.00;;;;;;;-144.99;100.00;52425.66;5010072;28;20657;-78
2021/03/01 00:03:26;;;;;;;14.93;7.60;;;;;;;-144.99;100.00;52403.25;5008601;28;20630;-77
2021/03/01 00:05:53;;;;;;;16.53;8.30;;;;;;;-144.99;100.00;52395.09;4999220;28;20629;-77
2021/03/01 00:08:19;;;;;;;16.13;8.90;;;;;;;-144.99;100.00;52419.56;5003998;28;20638;-79
2021/03/01 00:10:45;;;;;;;13.73;8.87;;;;;;;-144.99;100.00;52366.56;5002271;28;20738;-78
2021/03/01 00:13:11;;;;;;;15.60;9.17;;;;;;;-144.99;100.00;52419.56;5002079;28;20195;-80
2021/03/01 00:15:38;;;;;;;18.47;8.50;;;;;;;-144.99;100.00;52366.56;4999176;28;20713;-79
2021/03/01 00:18:05;;;;;;;13.03;8.37;;;;;;;-144.99;100.00;52460.31;5001082;28;20703;-76
2021/03/01 00:20:31;;;;;;;17.80;10.07;;;;;;;-144.99;100.00;52407.31;5000646;28;21226;-77
2021/03/01 00:22:58;;;;;;;18.47;11.33;;;;;;;-144.99;100.00;52431.78;4994874;28;20627;-81
2021/03/01 00:25:24;;;;;;;13.67;8.60;;;;;;;-144.99;100.00;52448.09;5006203;28;20698;-77
2021/03/01 00:27:50;;;;;;;17.70;9.07;;;;;;;-144.99;100.00;52437.91;5006447;28;21321;-79
2021/03/01 00:30:17;;;;;;;16.40;7.97;;;;;;;-144.99;100.00;52388.97;5010348;28;20630;-77
2021/03/01 00:32:43;;;;;;;15.87;9.43;;;;;;;-144.99;100.00;52403.25;5007001;28;20637;-75
2021/03/01 00:35:10;;;;;;;17.23;8.97;;;;;;;-144.99;100.00;52448.09;5005005;28;20631;-78
2021/03/01 00:37:37;;;;;;;20.83;8.07;;;;;;;-144.99;100.00;52448.09;5010745;28;20675;-77
2021/03/01 00:40:06;;;;;;;19.93;9.43;;;;;;;-144.99;100.00;52425.66;5008011;28;20640;-76
2021/03/01 00:42:32;;;;;;;16.57;9.00;;;;;;;-144.99;100.00;52386.94;4994123;28;20610;-76
2021/03/01 00:44:58;;;;;;;19.13;9.83;;;;;;;-144.99;100.00;52388.97;5011983;28;20640;-78
2021/03/01 00:47:24;;;;;;;20.60;8.90;;;;;;;-144.99;100.00;52444.03;5011158;28;20602;-76
2021/03/01 00:49:50;;;;;;;14.97;10.33;;;;;;;-144.99;100.00;52411.41;5002996;28;21209;-76
2021/03/01 00:52:16;;;;;;;20.23;13.07;;;;;;;-144.99;100.00;52429.75;5009168;28;20677;-78
2021/03/01 00:54:42;;;;;;;21.73;12.07;;;;;;;-144.99;100.00;52391.03;5011436;28;20205;-79
2021/03/01 00:57:09;;;;;;;22.43;12.10;;;;;;;-144.99;100.00;52411.41;5007297;28;20575;-79
2021/03/01 00:59:34;;;;;;;17.63;9.63;;;;;;;-144.99;100.00;52395.09;5010711;28;20622;-80
2021/03/01 01:02:01;;;;;;;21.70;10.07;;;;;;;-144.99;100.00;52439.94;5000992;28;21142;-80
2021/03/01 01:04:27;;;;;;;14.70;8.27;;;;;;;-144.99;100.00;52391.03;5010629;28;20286;-78
2021/03/01 01:06:53;;;;;;;18.57;9.50;;;;;;;-144.99;100.00;52427.72;5009494;28;20705;-76
2021/03/01 01:09:19;;;;;;;15.30;9.03;;;;;;;-144.99;100.00;52395.09;5010258;28;20614;-77
2021/03/01 01:11:45;;;;;;;23.17;11.93;;;;;;;-144.99;100.00;52411.41;5009275;28;21122;-78
2021/03/01 01:14:12;;;;;;;18.53;9.80;;;;;;;-144.99;100.00;52439.94;5010233;28;20241;-76
2021/03/01 01:16:38;;;;;;;16.60;8.37;;;;;;;-144.99;100.00;52378.78;5001420;28;20677;-77
2021/03/01 01:19:06;;;;;;;19.27;9.47;;;;;;;-144.99;100.00;52480.72;4998360;28;20670;-76
2021/03/01 01:21:32;;;;;;;19.80;9.73;;;;;;;-144.99;100.00;52431.78;5009244;28;20647;-77
2021/03/01 01:23:58;;;;;;;18.93;10.77;;;;;;;-144.99;100.00;52419.56;4999279;28;21191;-77
2021/03/01 01:26:24;;;;;;;14.57;9.87;;;;;;;-144.99;100.00;52431.78;4995252;28;20634;-78
2021/03/01 01:28:50;;;;;;;17.63;9.57;;;;;;;-144.99;100.00;52407.31;4999435;28;20199;-76
2021/03/01 01:31:17;;;;;;;20.10;10.60;;;;;;;-144.99;100.00;52480.72;4997465;28;20753;-77
2021/03/01 01:33:43;;;;;;;20.77;9.93;;;;;;;-144.99;100.00;52386.94;5002268;28;20633;-76
2021/03/01 01:36:09;;;;;;;14.40;8.60;;;;;;;-144.99;100.00;52407.31;4994503;28;21172;-75
2021/03/01 01:38:35;;;;;;;17.47;8.50;;;;;;;-144.99;100.00;52415.47;4996118;28;20675;-75
2021/03/01 01:41:01;;;;;;;17.83;9.20;;;;;;;-144.99;100.00;52435.88;4999774;28;21195;-76
2021/03/01 01:43:28;;;;;;;14.60;7.57;;;;;;;-144.99;100.00;52399.19;4997843;28;20196;-76
2021/03/01 01:45:54;;;;;;;17.77;9.50;;;;;;;-144.99;100.00;52419.56;4997301;28;20854;-77
2021/03/01 01:48:21;;;;;;;18.77;8.80;;;;;;;-144.99;100.00;52395.09;4995768;28;20630;-77
2021/03/01 01:50:47;;;;;;;16.37;8.87;;;;;;;-144.99;100.00;52444.03;4996073;28;20677;-77
2021/03/01 01:53:13;;;;;;;21.90;10.33;;;;;;;-144.99;100.00;52435.88;4993392;28;20696;-77
2021/03/01 01:55:39;;;;;;;15.10;7.57;;;;;;;-144.99;100.00;52433.81;4996116;28;20634;-75
2021/03/01 01:58:06;;;;;;;13.10;8.27;;;;;;;-144.99;100.00;52427.72;4996163;28;21055;-77
2021/03/01 02:00:45;;;;;;;12.73;7.47;;;;;;;-144.99;100.00;52399.19;4998732;28;21038;-76
2021/03/01 02:03:47;;;;;;;15.87;9.17;;;;;;;-144.99;100.00;52382.88;4996306;28;20661;-76
2021/03/01 02:06:31;;;;;;;14.17;7.30;;;;;;;-144.99;100.00;52391.03;4983098;28;20653;-73
2021/03/01 02:09:09;;;;;;;14.53;8.57;;;;;;;-144.99;100.00;52399.19;4998208;28;20633;-75
2021/03/01 02:11:40;;;;;;;14.70;8.23;;;;;;;-144.99;100.00;52423.63;5004266;28;20657;-76
2021/03/01 02:14:12;;;;;;;14.93;8.83;;;;;;;-144.99;100.00;52391.03;4996243;28;20634;-74
2021/03/01 02:16:39;;;;;;;18.50;10.00;;;;;;;-144.99;100.00;52409.38;4997114;28;21170;-74
2021/03/01 02:19:07;;;;;;;13.20;9.57;;;;;;;-144.99;100.00;52409.38;5002521;28;20815;-74
2021/03/01 02:21:38;;;;;;;12.33;6.60;;;;;;;-144.99;100.00;52382.88;5000601;28;20683;-76
2021/03/01 02:24:05;;;;;;;15.07;8.97;;;;;;;-144.99;100.00;52391.03;4996353;28;20622;-74
2021/03/01 02:26:34;;;;;;;13.67;7.30;;;;;;;-144.99;100.00;52407.31;5002969;28;21001;-73
2021/03/01 02:29:05;;;;;;;17.83;8.03;;;;;;;-144.99;100.00;52433.81;5000545;28;21183;-75
2021/03/01 02:31:32;;;;;;;14.87;7.47;;;;;;;-144.99;100.00;52411.41;5003132;28;20669;-77
2021/03/01 02:34:01;;;;;;;13.17;7.27;;;;;;;-144.99;100.00;52423.63;5000080;28;20634;-76
2021/03/01 02:36:32;;;;;;;13.10;7.33;;;;;;;-144.99;100.00;52423.63;4995909;28;20732;-78
2021/03/01 02:39:02;;;;;;;12.57;7.63;;;;;;;-144.99;100.00;52370.63;4992676;28;20649;-80
2021/03/01 02:41:29;;;;;;;16.93;7.77;;;;;;;-144.99;100.00;52452.16;4994450;28;20665;-78
2021/03/01 02:43:55;;;;;;;13.93;8.03;;;;;;;-144.99;100.00;52427.72;4991044;28;20693;-76
2021/03/01 02:46:22;;;;;;;14.60;8.13;;;;;;;-144.99;100.00;52417.53;4997207;28;20644;-77
2021/03/01 02:48:49;;;;;;;18.20;8.63;;;;;;;-144.99;100.00;52407.31;4998371;28;20630;-76
2021/03/01 02:51:16;;;;;;;15.03;8.47;;;;;;;-144.99;100.00;52439.94;4999331;28;21211;-78
2021/03/01 02:53:44;;;;;;;24.37;10.00;;;;;;;-144.99;100.00;52427.72;5003818;28;20630;-76
2021/03/01 02:56:11;;;;;;;15.77;9.03;;;;;;;-144.99;100.00;52378.78;4997189;28;20626;-77
2021/03/01 02:58:40;;;;;;;11.53;8.47;;;;;;;-144.99;100.00;52427.72;4995887;28;20641;-75
2021/03/01 03:01:07;;;;;;;10.43;7.13;;;;;;;-144.99;100.00;52403.25;5000399;28;21004;-75
2021/03/01 03:03:33;;;;;;;10.30;5.70;;;;;;;-144.99;100.00;52431.78;5001534;28;20634;-75
2021/03/01 03:06:00;;;;;;;13.10;6.57;;;;;;;-144.99;100.00;52395.09;4996319;28;20630;-77
2021/03/01 03:08:30;;;;;;;12.63;6.93;;;;;;;-144.99;100.00;52403.25;4997164;28;20714;-75
2021/03/01 03:10:57;;;;;;;10.43;5.80;;;;;;;-144.99;100.00;52415.47;4995026;28;22118;-75
2021/03/01 03:13:25;;;;;;;10.33;5.73;;;;;;;-144.99;100.00;52415.47;4999490;28;20636;-77
2021/03/01 03:15:53;;;;;;;10.90;5.23;;;;;;;-144.99;100.00;52435.88;4989804;28;21260;-77
2021/03/01 03:18:20;;;;;;;18.03;9.53;;;;;;;-144.99;100.00;52427.72;4993309;28;20649;-75
2021/03/01 03:20:46;;;;;;;10.90;6.47;;;;;;;-144.99;100.00;52386.94;5002041;28;20657;-76
2021/03/01 03:23:12;;;;;;;10.87;5.33;;;;;;;-144.99;100.00;52393.06;4995637;28;20627;-77
2021/03/01 03:25:39;;;;;;;10.43;7.43;;;;;;;-144.99;100.00;52444.03;5000877;28;20641;-76
2021/03/01 03:28:06;;;;;;;11.73;5.73;;;;;;;-144.99;100.00;52419.56;5000107;28;21221;-75
2021/03/01 03:30:34;;;;;;;13.27;6.13;;;;;;;-144.99;100.00;52415.47;5002154;28;21205;-76
2021/03/01 03:33:01;;;;;;;11.27;6.10;;;;;;;-144.99;100.00;52386.94;5003818;28;21050;-75
2021/03/01 03:35:28;;;;;;;10.40;6.70;;;;;;;-144.99;100.00;52421.59;5000879;28;21229;-75
2021/03/01 03:37:57;;;;;;;13.73;7.63;;;;;;;-144.99;100.00;52391.03;5002307;28;20641;-75
2021/03/01 03:40:26;;;;;;;16.13;7.80;;;;;;;-144.99;100.00;52391.03;5001165;28;21082;-73
2021/03/01 03:42:52;;;;;;;16.93;13.30;;;;;;;-144.99;100.00;52427.72;5005575;28;20625;-75
2021/03/01 03:45:20;;;;;;;14.03;7.13;;;;;;;-144.99;100.00;52391.03;5003050;28;20633;-75
2021/03/01 03:47:49;;;;;;;14.93;8.13;;;;;;;-144.99;100.00;52423.63;5001542;28;20621;-76
2021/03/01 03:50:17;;;;;;;16.20;8.07;;;;;;;-144.99;100.00;52419.56;4997132;28;20629;-76
2021/03/01 03:52:46;;;;;;;23.07;9.27;;;;;;;-144.99;100.00;52366.56;4999460;28;20740;-78
2021/03/01 03:55:18;;;;;;;21.47;8.93;;;;;;;-144.99;100.00;52433.81;5029321;23;20625;-69
2021/03/01 03:57:50;;;;;;;16.03;11.37;;;;;;;-144.99;100.00;52399.19;4992718;28;20740;-70
2021/03/01 04:00:18;;;;;;;20.23;9.90;;;;;;;-144.99;100.00;52386.94;5002597;28;20664;-70
2021/03/01 04:02:45;;;;;;;14.70;8.10;;;;;;;-144.99;100.00;52397.13;4997503;28;20714;-70
2021/03/01 04:05:14;;;;;;;13.97;8.70;;;;;;;-144.99;100.00;52403.25;4995197;28;20737;-71
2021/03/01 04:07:44;;;;;;;14.50;7.63;;;;;;;-144.99;100.00;52409.38;5003592;28;20660;-70
2021/03/01 04:10:12;;;;;;;19.33;7.70;;;;;;;-144.99;100.00;52374.72;5002673;28;20638;-72
2021/03/01 04:12:40;;;;;;;15.37;8.87;;;;;;;-144.99;100.00;52423.63;5000379;28;20655;-71
2021/03/01 04:15:10;;;;;;;14.23;7.73;;;;;;;-144.99;100.00;52435.88;4994753;28;20685;-71
2021/03/01 04:17:39;;;;;;;14.23;8.03;;;;;;;-144.99;100.00;52407.31;5002670;28;20665;-71
2021/03/01 04:20:07;;;;;;;14.50;8.27;;;;;;;-144.99;100.00;52403.25;5000140;28;20754;-73
2021/03/01 04:22:36;;;;;;;16.47;8.00;;;;;;;-144.99;100.00;52386.94;4993898;28;20633;-74
2021/03/01 04:25:04;;;;;;;19.57;10.03;;;;;;;-144.99;100.00;52427.72;5000366;28;20645;-72
2021/03/01 04:27:31;;;;;;;13.83;9.10;;;;;;;-144.99;100.00;52454.22;4994116;28;21226;-72
2021/03/01 04:30:00;;;;;;;20.80;9.73;;;;;;;-144.99;100.00;52415.47;5000534;28;20637;-71
2021/03/01 04:32:28;;;;;;;13.33;8.80;;;;;;;-144.99;100.00;52407.31;5000618;28;20735;-72
2021/03/01 04:34:55;;;;;;;16.73;8.43;;;;;;;-144.99;100.00;52423.63;4999719;28;20634;-72
2021/03/01 04:37:21;;;;;;;14.93;10.93;;;;;;;-144.99;100.00;52415.47;4999317;28;21313;-73
2021/03/01 04:39:48;;;;;;;16.00;9.50;;;;;;;-144.99;100.00;52366.56;5000471;28;21046;-73
2021/03/01 04:42:15;;;;;;;15.30;10.20;;;;;;;-144.99;100.00;52382.88;5002000;28;20208;-72
2021/03/01 04:44:41;;;;;;;16.20;7.93;;;;;;;-144.99;100.00;52433.81;5001505;28;21217;-72
2021/03/01 04:47:09;;;;;;;23.83;11.93;;;;;;;-144.99;100.00;52407.31;4999527;28;20653;-71
2021/03/01 04:49:38;;;;;;;16.40;9.70;;;;;;;-144.99;100.00;52433.81;5000422;28;20687;-70
2021/03/01 04:52:05;;;;;;;14.07;7.53;;;;;;;-144.99;100.00;52386.94;4997978;28;20633;-71
2021/03/01 04:54:32;;;;;;;16.03;8.00;;;;;;;-144.99;100.00;52454.22;4998450;28;20622;-71
2021/03/01 04:57:00;;;;;;;12.97;8.57;;;;;;;-144.99;100.00;52380.84;4997559;28;20688;-71
2021/03/01 04:59:27;;;;;;;12.27;8.47;;;;;;;-144.99;100.00;52427.72;4994303;28;20665;-71
2021/03/01 05:01:53;;;;;;;12.90;6.70;;;;;;;-144.99;100.00;52444.03;4997218;28;20986;-72
2021/03/01 05:04:20;;;;;;;14.03;7.03;;;;;;;-144.99;100.00;52362.50;4997559;28;20638;-71
2021/03/01 05:06:46;;;;;;;12.63;6.37;;;;;;;-144.99;100.00;52407.31;5003681;28;20796;-71
2021/03/01 05:09:14;;;;;;;10.40;6.83;;;;;;;-144.99;100.00;52403.25;5004972;28;21370;-72
2021/03/01 05:11:40;;;;;;;13.70;7.70;;;;;;;-144.99;100.00;52460.31;5004450;28;20632;-71
2021/03/01 05:14:08;;;;;;;10.17;5.97;;;;;;;-144.99;100.00;52448.09;4997778;28;20661;-71
2021/03/01 05:16:34;;;;;;;15.73;7.80;;;;;;;-144.99;100.00;52399.19;5002350;28;20274;-72
2021/03/01 05:19:00;;;;;;;11.37;7.30;;;;;;;-144.99;100.00;52411.41;5002311;28;20653;-72
2021/03/01 05:21:27;;;;;;;10.70;7.70;;;;;;;-144.99;100.00;52407.31;5002527;28;21371;-71
2021/03/01 05:23:53;;;;;;;13.53;7.97;;;;;;;-144.99;100.00;52403.25;5004845;28;20645;-72
2021/03/01 05:26:20;;;;;;;10.50;6.53;;;;;;;-144.99;100.00;52407.31;5002360;28;20783;-72
2021/03/01 05:28:46;;;;;;;14.40;7.70;;;;;;;-144.99;100.00;52415.47;5001583;28;20633;-72
2021/03/01 05:31:14;;;;;;;14.80;9.70;;;;;;;-144.99;100.00;52437.91;5000234;28;20695;-72
2021/03/01 05:33:41;;;;;;;14.77;9.00;;;;;;;-144.99;100.00;52433.81;5000416;28;20642;-72
2021/03/01 05:36:07;;;;;;;17.07;8.63;;;;;;;-144.99;100.00;52407.31;5004369;28;20692;-73
2021/03/01 05:38:33;;;;;;;19.27;9.77;;;;;;;-144.99;100.00;52419.56;4999198;28;20662;-73
2021/03/01 05:41:03;;;;;;;18.87;9.57;;;;;;;-144.99;100.00;52427.72;5005070;28;21273;-74
2021/03/01 05:43:30;;;;;;;17.60;11.17;;;;;;;-144.99;100.00;52395.09;4996179;28;20634;-72
2021/03/01 05:45:58;;;;;;;16.80;9.40;;;;;;;-144.99;100.00;52399.19;5000165;28;20717;-73
2021/03/01 05:48:26;;;;;;;18.30;9.77;;;;;;;-144.99;100.00;52423.63;4996892;28;21242;-74
2021/03/01 05:50:54;;;;;;;18.63;10.33;;;;;;;-144.99;100.00;52403.25;4998201;28;20696;-72
2021/03/01 05:53:26;;;;;;;22.97;9.97;;;;;;;-144.99;100.00;52431.78;4997352;28;20643;-71
2021/03/01 05:55:53;;;;;;;14.80;8.33;;;;;;;-144.99;100.00;52391.03;4996314;28;20794;-74
2021/03/01 05:58:20;;;;;;;15.83;9.30;;;;;;;-144.99;100.00;52419.56;4995050;28;20721;-73
2021/03/01 06:00:47;;;;;;;17.73;10.67;;;;;;;-144.99;100.00;52407.31;4995841;28;20658;-74
2021/03/01 06:03:14;;;;;;;17.97;10.10;;;;;;;-144.99;100.00;52423.63;4998371;28;20652;-74
2021/03/01 06:05:41;;;;;;;16.10;9.77;;;;;;;-144.99;100.00;52380.84;4995232;28;20654;-75
2021/03/01 06:08:09;;;;;;;10.23;7.50;;;;;;;-144.99;100.00;52419.56;5000711;28;20630;-73
2021/03/01 06:10:35;;;;;;;15.47;9.40;;;;;;;-144.99;100.00;52395.09;5003108;28;20740;-74
2021/03/01 06:13:01;;;;;;;12.57;7.03;;;;;;;-144.99;100.00;52431.78;5001940;28;20629;-74
2021/03/01 06:15:29;;;;;;;15.30;8.87;;;;;;;-144.99;100.00;52444.03;4999909;28;20609;-75
2021/03/01 06:18:08;;;;;;;14.30;7.73;;;;;;;-144.99;100.00;52427.72;5001117;28;20661;-72
2021/03/01 06:20:36;;;;;;;11.37;6.50;;;;;;;-144.99;100.00;52419.56;4999037;28;20634;-72
2021/03/01 06:23:04;;;;;;;11.23;7.37;;;;;;;-144.99;100.00;52393.06;5000441;28;21045;-71
2021/03/01 06:25:30;;;;;;;13.57;6.57;;;;;;;-144.99;100.00;52391.03;5005631;28;20765;-71
2021/03/01 06:27:58;;;;;;;36.67;17.00;;;;;;;-144.99;100.00;52427.72;5002138;28;20652;-74
2021/03/01 06:30:26;;;;;;;13.33;7.87;;;;;;;-144.99;100.00;52407.31;5007459;28;21128;-74
2021/03/01 06:33:07;;;;;;;16.93;9.10;;;;;;;-144.99;100.00;52423.63;5000918;28;20630;-74
2021/03/01 06:35:35;;;;;;;13.20;8.20;;;;;;;-144.99;100.00;52431.78;4998234;28;20658;-72
2021/03/01 06:38:20;;;;;;;15.43;8.50;;;;;;;-144.99;100.00;52399.19;4996966;28;20763;-75
2021/03/01 06:41:15;;;;;;;15.97;10.30;;;;;;;-144.99;100.00;52431.78;4998550;28;20634;-75
2021/03/01 06:43:53;;;;;;;15.77;9.47;;;;;;;-144.99;100.00;52423.63;4995720;28;20621;-72
2021/03/01 06:46:20;;;;;;;18.43;9.53;;;;;;;-144.99;100.00;52423.63;4995639;28;20666;-76
2021/03/01 06:48:46;;;;;;;14.67;8.67;;;;;;;-144.99;100.00;52423.63;5000698;28;20629;-75
2021/03/01 06:51:12;;;;;;;19.87;12.17;;;;;;;-144.99;100.00;52448.09;5000636;28;21003;-72
2021/03/01 06:53:40;;;;;;;13.80;9.07;;;;;;;-144.99;100.00;52427.72;4996870;28;20634;-72
2021/03/01 06:56:08;;;;;;;20.47;10.97;;;;;;;-144.99;100.00;52391.03;5002832;28;20670;-73
2021/03/01 06:58:36;;;;;;;19.27;9.03;;;;;;;-144.99;100.00;52391.03;5001225;28;20776;-73
2021/03/01 07:01:05;;;;;;;17.23;9.37;;;;;;;-144.99;100.00;52419.56;4994504;28;20899;-73
2021/03/01 07:03:32;;;;;;;23.97;8.20;;;;;;;-144.99;100.00;52433.81;5005616;28;20695;-73
2021/03/01 07:05:59;;;;;;;13.90;7.20;;;;;;;-144.99;100.00;52399.19;5006928;28;21070;-72
2021/03/01 07:08:45;;;;;;;16.83;8.27;;;;;;;-144.99;100.00;52439.94;5001075;28;20638;-71
2021/03/01 07:11:23;;;;;;;16.70;9.67;;;;;;;-144.99;100.00;52391.03;5001145;28;20707;-71
2021/03/01 07:13:49;;;;;;;18.10;9.53;;;;;;;-144.99;100.00;52413.44;5002443;28;21036;-72
2021/03/01 07:16:16;;;;;;;19.00;10.37;;;;;;;-144.99;100.00;52382.88;4998557;28;22050;-73
2021/03/01 07:18:42;;;;;;;20.60;11.67;;;;;;;-144.99;100.00;52415.47;5002868;28;20761;-72
2021/03/01 07:21:10;;;;;;;13.70;8.20;;;;;;;-144.99;100.00;52419.56;5005853;28;20656;-72
2021/03/01 07:23:37;;;;;;;15.27;9.27;;;;;;;-144.99;100.00;52423.63;5001454;28;20639;-72
2021/03/01 07:26:04;;;;;;;14.23;8.67;;;;;;;-144.99;100.00;52439.94;5000690;28;20661;-77
2021/03/01 07:28:33;;;;;;;17.23;8.53;;;;;;;-144.99;100.00;52419.56;5006870;28;20644;-72
2021/03/01 07:31:02;;;;;;;14.80;8.30;;;;;;;-144.99;100.00;52362.50;5004896;28;20773;-72
2021/03/01 07:33:28;;;;;;;14.57;8.30;;;;;;;-144.99;100.00;52425.66;5001132;28;20645;-75
2021/03/01 07:35:57;;;;;;;16.20;8.43;;;;;;;-144.99;100.00;52419.56;5005887;28;20657;-73
2021/03/01 07:38:23;;;;;;;15.53;9.27;;;;;;;-144.99;100.00;52395.09;5003087;28;20756;-71
2021/03/01 07:40:49;;;;;;;24.10;12.50;;;;;;;-144.99;100.00;52427.72;5003033;28;20648;-73
2021/03/01 07:43:18;;;;;;;22.37;15.70;;;;;;;-144.99;100.00;52415.47;5007277;28;20636;-71
2021/03/01 07:45:45;;;;;;;25.27;12.67;;;;;;;-144.99;100.00;52419.56;5000893;28;21211;-72
2021/03/01 07:48:13;;;;;;;26.63;13.73;;;;;;;-144.99;100.00;52399.19;5000908;28;21263;-72
2021/03/01 07:50:42;;;;;;;23.00;15.43;;;;;;;-144.99;100.00;52382.88;5004156;28;20634;-73
2021/03/01 07:53:42;;;;;;;22.83;12.00;;;;;;;-144.99;100.00;52399.19;5002780;28;20729;-71
2021/03/01 07:56:48;;;;;;;20.33;11.93;;;;;;;-144.99;100.00;52446.06;5000857;28;20810;-72
2021/03/01 07:59:21;;;;;;;22.67;11.40;;;;;;;-144.99;100.00;52413.44;5001493;28;20653;-74
2021/03/01 08:02:08;;;;;;;21.33;12.80;;;;;;;-144.99;100.00;52342.09;4995606;28;20656;-73
2021/03/01 08:04:34;;;;;;;21.23;12.60;;;;;;;-144.99;100.00;52378.78;5002009;28;20760;-72
2021/03/01 08:07:02;;;;;;;19.63;13.23;;;;;;;-144.99;100.00;52411.41;5000418;28;20668;-71
2021/03/01 08:09:49;;;;;;;23.70;11.37;;;;;;;-144.99;100.00;52460.31;5010734;28;20692;-71
2021/03/01 08:12:54;;;;;;;16.27;9.43;;;;;;;-144.99;100.00;52386.94;5002349;28;21017;-74
2021/03/01 08:15:24;;;;;;;20.87;9.10;;;;;;;-144.99;100.00;52366.56;5002464;28;21019;-73
2021/03/01 08:17:50;;;;;;;19.60;8.60;;;;;;;-144.99;100.00;52421.59;5002079;28;20789;-73
2021/03/01 08:20:28;;;;;;;16.50;10.07;;;;;;;-144.99;100.00;52439.94;5001225;28;20671;-72
2021/03/01 08:23:18;;;;;;;17.50;10.60;;;;;;;-144.99;100.00;52362.50;4998568;28;20642;-71
2021/03/01 08:25:58;;;;;;;19.40;10.07;;;;;;;-144.99;100.00;52431.78;5008261;28;21337;-72
2021/03/01 08:28:58;;;;;;;12.77;7.93;;;;;;;-144.99;100.00;52419.56;5009675;28;21452;-71
2021/03/01 08:31:30;;;;;;;19.63;9.30;;;;;;;-144.99;100.00;52391.03;5003200;28;20673;-73
2021/03/01 08:34:24;;;;;;;20.27;10.90;;;;;;;-144.99;100.00;52419.56;5000099;28;21180;-70
2021/03/01 08:36:51;;;;;;;18.57;11.00;;;;;;;-144.99;100.00;52417.53;4974815;28;20784;-72
2021/03/01 08:39:59;;;;;;;20.13;11.07;;;;;;;-144.99;100.00;52386.94;4998970;28;20650;-71
2021/03/01 08:42:48;;;;;;;16.27;10.03;;;;;;;-144.99;100.00;52395.09;4997672;28;20622;-73
2021/03/01 08:45:33;;;;;;;14.80;7.87;;;;;;;-144.99;100.00;52403.25;4994015;28;20638;-73
2021/03/01 08:48:02;;;;;;;16.97;10.37;;;;;;;-144.99;100.00;52407.31;5001872;28;21190;-72
2021/03/01 08:50:30;;;;;;;16.43;9.47;;;;;;;-144.99;100.00;52374.72;5007078;28;20628;-72
2021/03/01 08:52:56;;;;;;;16.23;10.10;;;;;;;-144.99;100.00;52391.03;5011161;28;21159;-73
2021/03/01 08:55:23;;;;;;;20.20;10.07;;;;;;;-144.99;100.00;52382.88;5008193;28;20854;-73
2021/03/01 08:57:58;;;;;;;16.60;10.13;;;;;;;-144.99;100.00;52384.91;5011047;28;20606;-73
2021/03/01 09:00:25;;;;;;;24.27;11.63;;;;;;;-144.99;100.00;52384.91;5007005;28;20736;-75
2021/03/01 09:03:10;;;;;;;21.63;11.47;;;;;;;-144.99;100.00;52399.19;5010353;28;20827;-73
2021/03/01 09:05:37;;;;;;;21.27;11.03;;;;;;;-144.99;100.00;52374.72;5006757;28;20781;-73
2021/03/01 09:08:04;;;;;;;23.17;14.17;;;;;;;-144.99;100.00;52427.72;5006681;28;20630;-74
2021/03/01 09:10:35;;;;;;;20.83;11.97;;;;;;;-144.99;100.00;52393.06;5009754;28;20645;-74
2021/03/01 09:13:01;;;;;;;15.03;10.77;;;;;;;-144.99;100.00;52423.63;5011818;28;20613;-75
2021/03/01 09:15:28;;;;;;;26.30;13.53;;;;;;;-144.99;100.00;52429.75;5011201;28;20634;-74
2021/03/01 09:17:54;;;;;;;20.97;12.23;;;;;;;-144.99;100.00;52435.88;5011590;28;20679;-75
2021/03/01 09:20:22;;;;;;;20.43;12.67;;;;;;;-144.99;100.00;52409.38;5011761;28;20661;-73
2021/03/01 09:22:49;;;;;;;17.70;11.23;;;;;;;-144.99;100.00;52413.44;5011861;28;20725;-73
2021/03/01 09:25:33;;;;;;;21.13;12.33;;;;;;;-144.99;100.00;52427.72;5011967;28;20626;-77
2021/03/01 09:27:59;;;;;;;20.33;12.20;;;;;;;-144.99;100.00;52386.94;5010645;28;20732;-72
2021/03/01 09:30:27;;;;;;;23.23;11.60;;;;;;;-144.99;100.00;52380.84;5010655;28;20728;-73
2021/03/01 09:33:03;;;;;;;19.97;10.80;;;;;;;-144.99;100.00;52423.63;5012096;28;20748;-72
2021/03/01 09:35:33;;;;;;;16.20;8.63;;;;;;;-144.99;100.00;52399.19;5007838;28;20614;-76
2021/03/01 09:37:59;;;;;;;14.17;8.37;;;;;;;-144.99;100.00;52382.88;5012741;28;20705;-74
2021/03/01 09:40:26;;;;;;;18.77;12.23;;;;;;;-144.99;100.00;52374.72;5011563;28;20745;-72
2021/03/01 09:42:54;;;;;;;14.30;7.37;;;;;;;-144.99;100.00;52427.72;5012034;28;21397;-77
2021/03/01 09:45:21;;;;;;;14.23;9.63;;;;;;;-144.99;100.00;52382.88;5006994;28;21205;-77
2021/03/01 09:47:49;;;;;;;14.77;8.90;;;;;;;-144.99;100.00;52411.41;5006526;28;20641;-74
2021/03/01 09:50:17;;;;;;;13.50;8.90;;;;;;;-144.99;100.00;52386.94;5008452;28;20625;-74
2021/03/01 09:52:46;;;;;;;19.80;10.60;;;;;;;-144.99;100.00;52425.66;5011205;28;20621;-74
2021/03/01 09:55:14;;;;;;;20.37;11.90;;;;;;;-144.99;100.00;52409.38;5011787;28;20634;-73
2021/03/01 09:57:40;;;;;;;19.47;13.73;;;;;;;-144.99;100.00;52366.56;5010301;28;20660;-74
2021/03/01 10:00:25;;;;;;;21.47;14.33;;;;;;;-144.99;100.00;52397.13;5008884;28;21030;-73
2021/03/01 10:03:02;;;;;;;22.43;13.67;;;;;;;-144.99;100.00;52382.88;5008980;28;20626;-75
2021/03/01 10:05:31;;;;;;;19.30;11.07;;;;;;;-144.99;100.00;52439.94;5034970;23;21053;-71
2021/03/01 10:08:01;;;;;;;17.97;10.43;;;;;;;-144.99;100.00;52391.03;5008869;28;20737;-74
2021/03/01 10:10:35;;;;;;;21.37;12.87;;;;;;;-144.99;100.00;52380.84;5006785;28;20625;-73
2021/03/01 10:13:01;;;;;;;16.97;10.27;;;;;;;-144.99;100.00;52415.47;4999280;28;21182;-74
2021/03/01 10:15:29;;;;;;;14.77;8.27;;;;;;;-144.99;100.00;52413.44;5004210;28;20671;-72
2021/03/01 10:18:06;;;;;;;18.00;9.03;;;;;;;-144.99;100.00;52382.88;5000885;28;20662;-72
2021/03/01 10:20:32;;;;;;;16.83;11.10;;;;;;;-144.99;100.00;52356.38;5003031;28;21247;-74
2021/03/01 10:23:06;;;;;;;15.87;8.53;;;;;;;-144.99;100.00;52397.13;4998718;28;20680;-73
2021/03/01 10:25:37;;;;;;;20.13;11.37;;;;;;;-144.99;100.00;52401.22;5002863;28;21053;-73
2021/03/01 10:28:08;;;;;;;17.43;10.23;;;;;;;-144.99;99.33;52403.25;4998313;28;20718;-72
2021/03/01 10:30:35;;;;;;;16.70;10.17;;;;;;;-144.99;99.60;52435.88;5005966;28;20628;-73
2021/03/01 10:33:08;;;;;;;20.03;10.70;;;;;;;-144.99;99.45;52395.09;5005176;28;20626;-73
2021/03/01 10:35:34;;;;;;;18.47;10.20;;;;;;;-144.99;99.63;52352.28;5004744;28;20663;-74
2021/03/01 10:38:03;;;;;;;15.20;9.37;;;;;;;-144.99;99.56;52399.19;5005092;28;20653;-73
2021/03/01 10:40:30;;;;;;;16.67;8.77;;;;;;;-144.99;99.65;52393.06;4996020;28;20636;-72
2021/03/01 10:42:56;;;;;;;21.93;10.13;;;;;;;-144.99;99.88;52423.63;5016382;28;20674;-71
2021/03/01 10:45:23;;;;;;;16.17;8.17;;;;;;;-144.99;100.00;52433.81;5004041;28;21237;-73
2021/03/01 10:48:00;;;;;;;18.77;12.43;;;;;;;-144.99;100.00;52415.47;5008797;28;20672;-73
2021/03/01 10:50:26;;;;;;;19.40;12.13;;;;;;;-144.99;100.00;52433.81;5005393;28;20625;-72
2021/03/01 10:52:53;;;;;;;17.33;10.63;;;;;;;-144.99;100.00;52374.72;5003998;28;21245;-73
2021/03/01 10:55:19;;;;;;;21.13;12.13;;;;;;;-144.99;100.00;52386.94;5024380;28;21241;-76
2021/03/01 10:57:46;;;;;;;18.33;11.43;;;;;;;-144.99;100.00;52384.91;5007982;28;20993;-74
2021/03/01 11:00:13;;;;;;;17.77;10.47;;;;;;;-144.99;100.00;52421.59;5007208;28;20630;-73
2021/03/01 11:02:39;;;;;;;17.93;10.47;;;;;;;-144.99;100.00;52384.91;5002840;28;20625;-73
2021/03/01 11:05:07;;;;;;;20.07;13.80;;;;;;;-144.99;100.00;52395.09;5002265;28;20792;-73
2021/03/01 11:07:33;;;;;;;18.80;10.83;;;;;;;-144.99;100.00;52403.25;5011867;28;20639;-75
2021/03/01 11:09:59;;;;;;;21.13;12.27;;;;;;;-144.99;100.00;52391.03;5009466;28;20639;-74